Time;durP1;ratioP1;P1;durP2;ratioP2;P2;SDS_P1;SDS_P2;PMS_P1;PMS_P2;Temp;Humidity;BMP_temperature;BMP_pressure;BME280_temperature;BME280_humidity;BME280_pressure;Samples;Min_cycle;Max_cycle;Signal;HPM_P1;HPM_P2
2022/06/17 17:39:31;;;;;;;6.60;3.45;;;;;;;35.87;49.88;101890.75;5097980;27;20369;-75
2022/06/17 17:41:59;;;;;;;5.05;3.22;;;;;;;35.81;47.56;101895.34;5093032;28;20778;-77
2022/06/17 17:44:25;;;;;;;6.63;3.20;;;;;;;35.85;46.09;101885.50;5071661;28;20226;-79
2022/06/17 17:46:51;;;;;;;5.07;3.35;;;;;;;35.93;46.99;101886.19;5098236;28;20043;-76
2022/06/17 17:49:21;;;;;;;5.22;3.10;;;;;;;36.71;43.88;101882.28;5085181;28;20359;-76
2022/06/17 17:51:47;;;;;;;4.65;2.70;;;;;;;36.71;43.40;101882.28;5088750;28;20039;-77
2022/06/17 17:54:13;;;;;;;6.13;3.22;;;;;;;36.71;43.24;101882.28;5097421;28;21051;-77
2022/06/17 17:56:40;;;;;;;4.45;2.63;;;;;;;36.68;42.42;101878.22;5118702;28;20300;-77
2022/06/17 17:59:07;;;;;;;7.63;2.90;;;;;;;36.38;44.06;101882.91;5082269;28;20020;-78
2022/06/17 18:01:46;;;;;;;5.72;2.85;;;;;;;37.17;42.20;101874.75;5064295;28;20038;-76
2022/06/17 18:04:25;;;;;;;3.35;2.85;;;;;;;37.21;42.24;101869.81;5102004;28;20023;-77
2022/06/17 18:06:50;;;;;;;8.15;3.05;;;;;;;36.84;45.73;101874.66;5111299;28;20020;-76
2022/06/17 18:09:17;;;;;;;4.30;2.63;;;;;;;36.89;47.09;101876.22;5109240;28;20027;-76
2022/06/17 18:11:46;;;;;;;4.20;2.80;;;;;;;37.15;47.80;101872.34;5098784;28;20023;-76
2022/06/17 18:14:15;;;;;;;3.60;2.67;;;;;;;36.38;49.53;101877.22;5119993;28;20027;-75
2022/06/17 18:16:43;;;;;;;4.25;2.65;;;;;;;37.10;45.37;101866.34;5117933;28;20098;-76
2022/06/17 18:19:09;;;;;;;5.35;3.15;;;;;;;36.86;44.80;101860.75;5103174;28;20012;-74
2022/06/17 18:21:37;;;;;;;5.95;2.80;;;;;;;36.86;44.75;101868.50;5099818;28;20042;-76
2022/06/17 18:24:04;;;;;;;4.18;2.58;;;;;;;36.11;47.12;101865.88;5070979;28;20246;-76
2022/06/17 18:26:36;;;;;;;5.20;2.97;;;;;;;35.95;49.24;101863.72;5079096;28;20031;-72
2022/06/17 18:29:08;;;;;;;6.20;2.88;;;;;;;34.65;47.57;101864.78;5081227;28;20755;-72
2022/06/17 18:31:34;;;;;;;7.00;2.90;;;;;;;33.85;51.89;101863.97;5096903;28;20137;-72
2022/06/17 18:34:02;;;;;;;4.18;2.95;;;;;;;32.97;58.90;101876.25;5075490;28;20117;-73
2022/06/17 18:36:27;;;;;;;5.15;3.00;;;;;;;32.81;56.99;101870.25;5092363;28;20214;-72
2022/06/17 18:38:53;;;;;;;6.55;2.95;;;;;;;32.48;59.26;101863.84;5081574;28;20051;-73
2022/06/17 18:44:03;;;;;;;5.70;2.90;;;;;;;32.00;61.88;101870.81;5093566;28;20073;-73
2022/06/17 18:46:30;;;;;;;5.20;3.00;;;;;;;31.64;65.16;101877.28;5051715;28;20500;-73
2022/06/17 18:48:59;;;;;;;6.00;3.10;;;;;;;31.50;65.98;101871.56;5091620;28;20138;-73
2022/06/17 18:51:24;;;;;;;8.43;3.22;;;;;;;31.31;68.54;101867.09;5053530;28;20031;-74
2022/06/17 18:53:50;;;;;;;3.50;2.47;;;;;;;31.27;69.01;101866.25;5084147;28;20053;-74
2022/06/17 18:56:15;;;;;;;6.47;3.47;;;;;;;30.89;69.05;101865.72;5087674;28;20533;-74
2022/06/17 18:58:41;;;;;;;6.03;3.42;;;;;;;30.52;71.35;101863.94;5051151;28;20542;-75
2022/06/17 19:01:22;;;;;;;4.53;3.08;;;;;;;30.37;72.71;101863.06;5070370;28;20032;-73
2022/06/17 19:03:51;;;;;;;3.90;3.35;;;;;;;30.22;74.20;101860.09;5087603;28;20024;-74
2022/06/17 19:06:19;;;;;;;5.38;3.65;;;;;;;29.54;72.91;101867.19;5066445;28;20024;-75
2022/06/17 19:19:47;;;;;;;6.10;3.50;;;;;;;29.22;73.02;101839.41;5103511;28;20135;-75
2022/06/17 19:22:17;;;;;;;5.88;3.72;;;;;;;29.09;74.84;101844.47;5097552;28;20043;-76
2022/06/17 19:24:43;;;;;;;5.43;3.75;;;;;;;28.74;70.99;101840.03;5065912;28;20054;-75
2022/06/17 19:27:15;;;;;;;6.82;3.72;;;;;;;28.66;72.36;101852.44;5065344;28;20295;-75
2022/06/17 19:29:42;;;;;;;7.38;3.30;;;;;;;28.70;72.20;101851.28;5065949;28;20043;-76
2022/06/17 19:32:32;;;;;;;6.20;3.60;;;;;;;28.24;72.40;101851.44;5104495;28;20027;-76
2022/06/17 19:34:58;;;;;;;4.72;3.33;;;;;;;28.22;75.00;101854.63;5077486;28;20477;-75
2022/06/17 19:37:24;;;;;;;6.20;3.80;;;;;;;28.31;73.91;101847.91;5087108;28;20825;-74
2022/06/17 19:39:52;;;;;;;6.22;3.55;;;;;;;28.13;75.28;101845.63;5083174;28;20036;-76
2022/06/17 19:42:18;;;;;;;5.45;3.53;;;;;;;28.00;77.96;101856.28;5059981;28;20164;-75
2022/06/17 19:44:46;;;;;;;7.55;3.70;;;;;;;27.66;77.72;101852.47;5073772;28;20164;-75
2022/06/17 19:47:19;;;;;;;4.45;3.97;;;;;;;27.62;80.15;101857.22;5103441;28;20353;-76
2022/06/17 19:49:46;;;;;;;;;;;;;;;27.14;81.21;101857.53;5095661;28;20500;-75
2022/06/17 19:52:21;;;;;;;5.57;3.78;;;;;;;27.39;80.08;101860.84;5092412;28;20378;-76
2022/06/17 19:54:47;;;;;;;5.88;4.32;;;;;;;27.41;79.40;101863.28;5070196;28;20028;-77
2022/06/17 19:57:12;;;;;;;8.00;3.55;;;;;;;27.39;81.22;101855.22;5048196;28;20039;-76
2022/06/17 19:59:38;;;;;;;8.95;3.95;;;;;;;27.19;81.54;101862.84;5059787;28;20123;-76
2022/06/17 20:02:19;;;;;;;6.78;3.95;;;;;;;27.13;81.86;101853.06;5067046;28;20470;-76
2022/06/17 20:04:46;;;;;;;7.32;4.15;;;;;;;27.05;83.09;101860.53;5080357;28;20019;-76
2022/06/17 20:07:11;;;;;;;5.50;3.45;;;;;;;26.91;83.41;101860.28;5047916;28;20089;-77
2022/06/17 20:09:37;;;;;;;4.30;3.70;;;;;;;26.77;85.07;101860.78;5085763;28;20024;-76
2022/06/17 20:12:03;;;;;;;7.03;3.65;;;;;;;26.69;85.77;101859.81;5052183;28;20107;-76
2022/06/17 20:14:33;;;;;;;5.93;3.63;;;;;;;26.62;85.42;101856.00;5062885;28;20050;-76
2022/06/17 20:16:59;;;;;;;8.30;3.88;;;;;;;26.51;85.76;101861.38;5082353;28;20370;-77
2022/06/17 20:19:26;;;;;;;5.60;3.78;;;;;;;26.40;86.23;101859.16;5060251;28;20023;-76
2022/06/17 20:21:58;;;;;;;6.30;3.95;;;;;;;26.33;87.76;101861.78;5087029;28;20032;-76
2022/06/17 20:24:27;;;;;;;5.38;4.05;;;;;;;26.34;87.90;101865.44;5073327;28;20020;-76
2022/06/17 20:26:53;;;;;;;7.75;4.05;;;;;;;26.16;88.54;101865.00;5072906;28;20039;-75
2022/06/17 20:29:23;;;;;;;7.57;3.83;;;;;;;26.01;89.25;101866.66;5086761;28;20034;-75
2022/06/17 20:31:53;;;;;;;4.97;4.00;;;;;;;25.75;89.90;101867.19;5080378;28;20579;-75
2022/06/17 20:34:19;;;;;;;7.05;4.50;;;;;;;25.77;90.49;101867.63;5083383;28;20039;-76
2022/06/17 20:36:46;;;;;;;4.97;4.50;;;;;;;25.84;89.08;101864.97;5058329;28;20035;-75
2022/06/17 20:39:20;;;;;;;5.95;4.10;;;;;;;25.77;90.63;101862.00;5075112;28;20070;-75
2022/06/17 20:41:46;;;;;;;5.65;3.80;;;;;;;25.52;91.01;101856.56;5065477;28;20504;-76
2022/06/17 20:44:14;;;;;;;5.43;4.00;;;;;;;25.53;92.44;101855.38;5082574;28;20054;-76
2022/06/17 20:52:08;;;;;;;7.50;4.03;;;;;;;25.50;91.87;101856.09;5084327;28;20034;-75
2022/06/17 20:54:35;;;;;;;5.25;3.75;;;;;;;25.41;92.13;101849.84;5065054;28;20115;-75
2022/06/17 20:59:46;;;;;;;6.00;3.83;;;;;;;25.23;93.04;101844.50;5069115;28;20197;-76
2022/06/17 21:02:12;;;;;;;5.18;3.90;;;;;;;25.25;93.22;101845.00;5083650;28;20110;-76
2022/06/17 21:04:47;;;;;;;4.32;3.80;;;;;;;25.26;93.21;101843.78;5050331;28;20118;-76
2022/06/17 21:07:17;;;;;;;5.68;4.50;;;;;;;25.21;93.47;101838.44;5049973;28;20089;-76
2022/06/17 21:09:45;;;;;;;6.07;3.83;;;;;;;24.93;94.68;101832.88;5082889;28;20071;-76
2022/06/17 21:12:18;;;;;;;6.85;3.97;;;;;;;25.10;93.95;101838.16;5062987;28;20028;-74
2022/06/17 21:14:44;;;;;;;6.18;3.97;;;;;;;25.09;93.88;101835.72;5075984;28;20559;-75
2022/06/17 21:17:10;;;;;;;4.40;3.67;;;;;;;25.03;93.46;101831.53;5103029;28;20028;-75
2022/06/17 21:19:41;;;;;;;5.13;3.80;;;;;;;24.95;92.76;101822.91;5040301;28;20038;-75
2022/06/17 21:22:14;;;;;;;7.20;3.55;;;;;;;25.12;93.99;101835.81;5089734;28;20028;-76
2022/06/17 21:24:41;;;;;;;;;;;;;;;24.81;94.58;101825.31;5100374;28;20035;-76
2022/06/17 21:27:11;;;;;;;6.18;4.30;;;;;;;24.98;95.39;101827.00;5100558;28;19911;-77
2022/06/17 21:29:36;;;;;;;4.90;3.83;;;;;;;24.98;94.34;101815.78;5090279;28;20153;-76
2022/06/17 21:32:03;;;;;;;6.05;4.07;;;;;;;24.89;95.38;101823.50;5069844;28;20552;-76
2022/06/17 21:34:28;;;;;;;6.18;3.67;;;;;;;24.76;93.94;101819.97;5084636;28;20572;-75
2022/06/17 21:36:54;;;;;;;3.92;3.53;;;;;;;24.69;95.70;101817.75;5096191;28;20127;-75
2022/06/17 21:39:26;;;;;;;5.43;3.72;;;;;;;24.59;96.78;101819.06;5045565;28;20134;-76
2022/06/17 21:41:52;;;;;;;6.53;3.47;;;;;;;24.66;95.43;101821.28;5080506;28;21330;-77
2022/06/17 21:44:20;;;;;;;10.10;4.15;;;;;;;24.74;95.05;101813.88;5063840;28;20051;-76
2022/06/17 21:46:48;;;;;;;4.07;3.28;;;;;;;24.83;95.56;101817.34;5031660;28;21035;-75
2022/06/17 21:49:16;;;;;;;4.25;3.70;;;;;;;24.58;96.05;101813.84;5064757;28;20112;-75
2022/06/17 21:51:56;;;;;;;6.75;3.72;;;;;;;24.52;97.96;101816.03;5067692;28;20035;-76
2022/06/17 21:54:48;;;;;;;7.68;3.53;;;;;;;24.63;96.94;101809.94;5094667;28;20028;-75
2022/06/17 21:57:19;;;;;;;4.30;3.40;;;;;;;24.64;97.04;101815.19;5075917;28;20032;-77
2022/06/17 21:59:51;;;;;;;7.05;3.60;;;;;;;24.43;97.10;101812.53;5070680;28;20201;-76
2022/06/17 22:02:19;;;;;;;5.35;3.40;;;;;;;24.48;98.06;101819.88;5098476;28;20055;-75
2022/06/17 22:04:46;;;;;;;4.00;3.38;;;;;;;24.58;97.45;101811.84;5083712;28;20114;-76
2022/06/17 22:07:14;;;;;;;5.35;3.47;;;;;;;24.62;96.88;101813.94;5102066;28;20981;-76
2022/06/17 22:09:40;;;;;;;4.93;3.58;;;;;;;24.58;97.97;101811.03;5082266;28;20976;-76
2022/06/17 22:12:18;;;;;;;5.35;3.60;;;;;;;24.32;99.79;101817.81;5100053;28;20027;-76
2022/06/17 22:14:44;;;;;;;6.35;3.88;;;;;;;24.29;100.00;101818.53;5073820;28;20422;-75
2022/06/17 22:17:13;;;;;;;7.38;3.65;;;;;;;24.37;100.00;101819.56;5063196;28;20454;-75
2022/06/17 22:19:40;;;;;;;6.70;3.58;;;;;;;24.37;99.74;101808.34;5081992;28;20102;-76
2022/06/17 22:22:17;;;;;;;4.90;3.60;;;;;;;24.29;100.00;101800.91;5096037;28;20076;-76
2022/06/17 22:24:43;;;;;;;5.90;3.40;;;;;;;24.13;100.00;101807.22;5102332;28;20032;-76
2022/06/17 22:27:15;;;;;;;9.18;3.92;;;;;;;24.23;100.00;101805.91;5086308;28;20034;-76
2022/06/17 22:29:40;;;;;;;7.18;3.60;;;;;;;24.25;100.00;101802.75;5067520;28;20175;-76
2022/06/17 22:32:19;;;;;;;5.72;3.28;;;;;;;24.25;100.00;101805.56;5107838;28;20172;-76
2022/06/17 22:34:52;;;;;;;6.05;3.50;;;;;;;24.13;100.00;101809.22;5088030;28;20031;-75
2022/06/17 22:37:18;;;;;;;7.43;3.70;;;;;;;24.28;100.00;101796.47;5086828;28;20027;-78
2022/06/17 22:39:45;;;;;;;6.65;3.70;;;;;;;24.12;100.00;101801.97;5085546;28;20510;-76
2022/06/17 22:42:17;;;;;;;8.80;4.07;;;;;;;24.14;100.00;101794.84;5065548;28;20604;-75
2022/06/17 22:44:43;;;;;;;7.43;3.38;;;;;;;23.96;100.00;101804.69;5084932;28;20032;-77
2022/06/17 22:47:23;;;;;;;6.15;3.70;;;;;;;24.04;100.00;101800.94;5066795;28;20069;-76
2022/06/17 22:49:49;;;;;;;5.35;3.60;;;;;;;24.00;100.00;101800.81;5068403;28;20030;-76
2022/06/17 22:52:16;;;;;;;6.38;3.92;;;;;;;24.06;100.00;101797.78;5073147;28;20027;-77
2022/06/17 22:54:42;;;;;;;6.80;3.70;;;;;;;23.90;100.00;101800.47;5084456;28;20023;-75
2022/06/17 22:57:16;;;;;;;5.32;3.40;;;;;;;23.84;100.00;101803.50;5084019;28;20016;-75
2022/06/17 22:59:42;;;;;;;5.90;3.55;;;;;;;24.00;100.00;101786.00;5082426;28;20179;-76
2022/06/17 23:02:34;;;;;;;6.43;3.67;;;;;;;23.77;100.00;101796.81;5102812;28;20055;-75
2022/06/17 23:05:03;;;;;;;8.47;3.80;;;;;;;23.82;100.00;101794.63;5079040;28;20241;-74
2022/06/17 23:07:35;;;;;;;6.75;4.30;;;;;;;23.79;100.00;101794.47;5094746;28;20031;-75
2022/06/17 23:10:01;;;;;;;8.57;3.97;;;;;;;23.85;100.00;101793.13;5066035;28;20124;-75
2022/06/17 23:12:27;;;;;;;10.07;4.47;;;;;;;23.74;100.00;101786.31;5093064;28;20489;-76
2022/06/17 23:14:52;;;;;;;6.32;3.80;;;;;;;23.78;100.00;101790.88;5068843;28;20060;-76
2022/06/17 23:17:29;;;;;;;6.25;4.18;;;;;;;23.64;100.00;101788.41;5083817;28;20119;-76
2022/06/17 23:20:00;;;;;;;8.80;4.50;;;;;;;23.41;100.00;101790.84;5086916;28;20558;-74
2022/06/17 23:22:28;;;;;;;6.53;4.07;;;;;;;23.54;100.00;101788.88;5105096;28;20028;-75
2022/06/17 23:24:54;;;;;;;6.18;3.65;;;;;;;23.65;100.00;101781.66;5103921;28;20489;-75
2022/06/17 23:27:20;;;;;;;8.90;4.50;;;;;;;23.61;100.00;101782.69;5102844;28;20042;-76
2022/06/17 23:29:46;;;;;;;8.18;3.97;;;;;;;23.48;100.00;101790.25;5084726;28;20320;-75
2022/06/17 23:32:16;;;;;;;6.85;3.80;;;;;;;23.53;100.00;101789.22;5092848;28;20525;-75
2022/06/17 23:34:42;;;;;;;6.60;3.90;;;;;;;23.64;100.00;101779.19;5074103;28;20771;-76
2022/06/17 23:37:16;;;;;;;6.15;4.20;;;;;;;23.46;100.00;101787.84;5066937;28;20024;-76
2022/06/17 23:39:41;;;;;;;11.68;3.80;;;;;;;23.55;100.00;101789.72;5065887;28;20058;-76
2022/06/17 23:42:16;;;;;;;6.13;4.18;;;;;;;23.62;100.00;101775.94;5086241;28;20036;-76
2022/06/17 23:44:43;;;;;;;8.65;4.10;;;;;;;23.52;100.00;101784.81;5068464;28;20366;-76
2022/06/17 23:47:18;;;;;;;10.00;4.25;;;;;;;23.61;100.00;101783.53;5087266;28;20386;-76
2022/06/17 23:49:48;;;;;;;8.65;4.15;;;;;;;23.52;100.00;101779.22;5067591;28;20066;-75
2022/06/17 23:52:29;;;;;;;8.18;4.10;;;;;;;23.63;100.00;101783.19;5085368;28;20385;-76
2022/06/17 23:54:55;;;;;;;9.50;4.07;;;;;;;23.45;100.00;101788.97;5066212;28;20449;-75
2022/06/17 23:57:23;;;;;;;5.88;4.05;;;;;;;23.64;100.00;101790.41;5077757;28;20429;-75
2022/06/17 23:59:48;;;;;;;7.53;4.22;;;;;;;23.64;100.00;101782.81;5050568;28;20343;-75
